Time;durP1;ratioP1;P1;durP2;ratioP2;P2;SDS_P1;SDS_P2;PMS_P1;PMS_P2;Temp;Humidity;BMP_temperature;BMP_pressure;BME280_temperature;BME280_humidity;BME280_pressure;Samples;Min_cycle;Max_cycle;Signal;HPM_P1;HPM_P2
2023/01/20 00:00:23;;;;;;;8.35;2.80;;;;;;;;;;5095353;28;20024;-58
2023/01/20 00:02:48;;;;;;;8.85;2.85;;;;;;;;;;5095160;28;20055;-61
2023/01/20 00:05:14;;;;;;;4.05;1.75;;;;;;;;;;5097073;28;20015;-57
2023/01/20 00:07:39;;;;;;;9.27;2.13;;;;;;;;;;5097212;28;20027;-63
2023/01/20 00:10:05;;;;;;;7.15;2.33;;;;;;;;;;5097487;28;20380;-60
2023/01/20 00:12:31;;;;;;;6.78;2.30;;;;;;;;;;5097330;28;20042;-59
2023/01/20 00:14:56;;;;;;;5.70;2.40;;;;;;;;;;5097279;28;20015;-57
2023/01/20 00:17:22;;;;;;;5.15;2.03;;;;;;;;;;5097655;28;20024;-58
2023/01/20 00:19:47;;;;;;;6.85;2.42;;;;;;;;;;5095276;28;20020;-57
2023/01/20 00:22:13;;;;;;;4.80;2.17;;;;;;;;;;5094671;28;20112;-57
2023/01/20 00:24:39;;;;;;;8.50;3.13;;;;;;;;;;5095370;28;21000;-58
2023/01/20 00:27:04;;;;;;;6.22;2.40;;;;;;;;;;5096040;28;20024;-58
2023/01/20 00:29:30;;;;;;;9.90;2.45;;;;;;;;;;5097498;28;20032;-61
2023/01/20 00:31:55;;;;;;;7.90;2.17;;;;;;;;;;5095318;28;20016;-58
2023/01/20 00:34:21;;;;;;;5.82;2.13;;;;;;;;;;5096027;28;20154;-59
2023/01/20 00:36:46;;;;;;;6.68;2.40;;;;;;;;;;5094930;28;20165;-64
2023/01/20 00:39:12;;;;;;;7.53;2.80;;;;;;;;;;5094337;28;20020;-56
2023/01/20 00:41:37;;;;;;;5.13;2.60;;;;;;;;;;5094629;28;20087;-58
2023/01/20 00:44:03;;;;;;;9.23;2.53;;;;;;;;;;5094575;28;20016;-57
2023/01/20 00:46:28;;;;;;;5.55;2.50;;;;;;;;;;5095887;28;20020;-59
2023/01/20 00:48:54;;;;;;;13.57;3.90;;;;;;;;;;5094259;28;20032;-57
2023/01/20 00:51:19;;;;;;;8.90;3.33;;;;;;;;;;5095493;28;20070;-69
2023/01/20 00:53:45;;;;;;;8.73;3.08;;;;;;;;;;5095728;28;20028;-56
2023/01/20 00:56:10;;;;;;;10.32;3.08;;;;;;;;;;5094646;28;20028;-58
2023/01/20 00:58:35;;;;;;;7.13;2.97;;;;;;;;;;5095318;28;20017;-58
2023/01/20 01:01:01;;;;;;;6.97;3.03;;;;;;;;;;5095321;28;20346;-58
2023/01/20 01:03:27;;;;;;;9.07;3.10;;;;;;;;;;5094156;28;20404;-58
2023/01/20 01:05:52;;;;;;;7.77;2.63;;;;;;;;;;5094245;28;20020;-58
2023/01/20 01:08:18;;;;;;;7.43;3.00;;;;;;;;;;5095402;28;20028;-58
2023/01/20 01:10:43;;;;;;;6.63;2.97;;;;;;;;;;5094255;28;20016;-60
2023/01/20 01:13:09;;;;;;;10.23;3.60;;;;;;;;;;5097622;28;20020;-65
2023/01/20 01:15:34;;;;;;;7.57;2.83;;;;;;;;;;5098375;28;20020;-59
2023/01/20 01:18:00;;;;;;;12.18;3.30;;;;;;;;;;5096724;28;20380;-58
2023/01/20 01:20:26;;;;;;;8.82;3.03;;;;;;;;;;5095373;28;20024;-58
2023/01/20 01:22:51;;;;;;;19.00;3.73;;;;;;;;;;5096570;28;20552;-58
2023/01/20 01:25:17;;;;;;;9.50;2.75;;;;;;;;;;5093999;28;20024;-57
2023/01/20 01:27:42;;;;;;;9.15;3.05;;;;;;;;;;5094680;28;20123;-58
2023/01/20 01:30:08;;;;;;;11.32;3.38;;;;;;;;;;5095857;28;20016;-58
2023/01/20 01:32:33;;;;;;;9.27;2.80;;;;;;;;;;5094562;28;20024;-61
2023/01/20 01:34:59;;;;;;;7.53;3.05;;;;;;;;;;5096396;28;20043;-57
2023/01/20 01:37:26;;;;;;;7.95;2.53;;;;;;;;;;5096351;28;20054;-59
2023/01/20 01:39:51;;;;;;;5.60;2.47;;;;;;;;;;5093530;28;20020;-58
2023/01/20 01:42:18;;;;;;;10.93;3.30;;;;;;;;;;5094187;28;20027;-58
2023/01/20 01:45:22;;;;;;;13.75;3.13;;;;;;;;;;5095921;28;20020;-58
2023/01/20 01:47:53;;;;;;;6.47;2.73;;;;;;;;;;5015114;28;20033;-58
2023/01/20 01:50:20;;;;;;;10.60;3.20;;;;;;;;;;5015318;28;20060;-57
2023/01/20 01:52:49;;;;;;;6.43;3.03;;;;;;;;;;5063603;28;20028;-59
2023/01/20 01:55:17;;;;;;;8.90;3.03;;;;;;;;;;5092728;28;20024;-58
2023/01/20 01:57:42;;;;;;;8.32;3.22;;;;;;;;;;5092748;28;20389;-57
2023/01/20 02:00:08;;;;;;;9.38;3.95;;;;;;;;;;5092868;28;20031;-59
2023/01/20 02:02:34;;;;;;;6.88;3.17;;;;;;;;;;5093894;28;20052;-58
2023/01/20 02:05:00;;;;;;;5.25;2.85;;;;;;;;;;5094114;28;20027;-57
2023/01/20 02:07:26;;;;;;;9.88;3.20;;;;;;;;;;5094079;28;20016;-58
2023/01/20 02:09:51;;;;;;;7.28;2.75;;;;;;;;;;5092305;28;20062;-57
2023/01/20 02:12:19;;;;;;;8.13;3.25;;;;;;;;;;5092097;28;20437;-60
2023/01/20 02:14:47;;;;;;;9.43;3.65;;;;;;;;;;5095017;28;20024;-57
2023/01/20 02:17:24;;;;;;;7.80;2.80;;;;;;;;;;5096184;28;20091;-58
2023/01/20 02:19:57;;;;;;;8.20;3.28;;;;;;;;;;5093476;28;20023;-59
2023/01/20 02:22:28;;;;;;;6.55;3.72;;;;;;;;;;5093871;28;20107;-58
2023/01/20 02:25:12;;;;;;;8.45;3.28;;;;;;;;;;5095003;28;20040;-60
2023/01/20 02:27:56;;;;;;;8.52;2.70;;;;;;;;;;5094760;28;20012;-62
2023/01/20 02:30:31;;;;;;;6.93;3.35;;;;;;;;;;5093596;28;20020;-59
2023/01/20 02:32:59;;;;;;;6.30;2.63;;;;;;;;;;5095662;28;20083;-62
2023/01/20 02:35:43;;;;;;;9.05;3.55;;;;;;;;;;5096519;28;20547;-64
2023/01/20 02:38:27;;;;;;;8.18;3.30;;;;;;;;;;5093945;28;20376;-62
2023/01/20 02:41:01;;;;;;;9.50;2.78;;;;;;;;;;5092979;28;20020;-58
2023/01/20 02:43:45;;;;;;;9.43;3.03;;;;;;;;;;5093811;28;20050;-59
2023/01/20 02:46:14;;;;;;;6.28;2.33;;;;;;;;;;5093288;28;20012;-57
2023/01/20 02:48:46;;;;;;;8.80;3.33;;;;;;;;;;5093430;28;20028;-59
2023/01/20 02:51:16;;;;;;;8.55;3.20;;;;;;;;;;5091911;28;20016;-57
2023/01/20 02:53:53;;;;;;;5.40;2.63;;;;;;;;;;5093805;28;20024;-56
2023/01/20 02:56:21;;;;;;;8.43;2.83;;;;;;;;;;5092095;28;20174;-57
2023/01/20 02:58:48;;;;;;;9.20;2.88;;;;;;;;;;5092171;28;20392;-59
2023/01/20 03:01:18;;;;;;;5.70;3.03;;;;;;;;;;5091799;28;20391;-59
2023/01/20 03:03:45;;;;;;;7.72;2.97;;;;;;;;;;5092986;28;20044;-58
2023/01/20 03:06:18;;;;;;;7.75;2.65;;;;;;;;;;5091705;28;20103;-57
2023/01/20 03:08:44;;;;;;;5.50;2.30;;;;;;;;;;5091782;28;20040;-58
2023/01/20 03:11:10;;;;;;;7.38;2.30;;;;;;;;;;5091515;28;20050;-57
2023/01/20 03:13:50;;;;;;;4.18;2.30;;;;;;;;;;5092962;28;20489;-57
2023/01/20 03:16:19;;;;;;;6.35;2.83;;;;;;;;;;5093581;28;20031;-57
2023/01/20 03:18:46;;;;;;;5.47;2.58;;;;;;;;;;5091824;28;20066;-58
2023/01/20 03:21:13;;;;;;;7.57;2.40;;;;;;;;;;5091206;28;20027;-57
2023/01/20 03:23:41;;;;;;;3.20;2.00;;;;;;;;;;5091380;28;20023;-58
2023/01/20 03:26:07;;;;;;;4.57;1.90;;;;;;;;;;5093165;28;20020;-57
2023/01/20 03:28:33;;;;;;;7.25;2.70;;;;;;;;;;5091606;28;20405;-58
2023/01/20 03:31:00;;;;;;;10.32;2.88;;;;;;;;;;5091494;28;20070;-60
2023/01/20 03:33:26;;;;;;;9.75;3.20;;;;;;;;;;5092220;28;20020;-58
2023/01/20 03:35:52;;;;;;;8.43;2.70;;;;;;;;;;5091887;28;20480;-56
2023/01/20 03:38:17;;;;;;;9.45;2.78;;;;;;;;;;5093450;28;20488;-59
2023/01/20 03:40:49;;;;;;;10.50;2.88;;;;;;;;;;5092752;28;20024;-58
2023/01/20 03:43:19;;;;;;;6.63;2.90;;;;;;;;;;5091745;28;20415;-57
2023/01/20 03:46:04;;;;;;;10.23;3.00;;;;;;;;;;5091575;28;20385;-57
2023/01/20 03:48:43;;;;;;;5.25;2.50;;;;;;;;;;5092643;28;20077;-57
2023/01/20 03:51:38;;;;;;;5.50;2.25;;;;;;;;;;5092416;28;20461;-58
2023/01/20 03:54:08;;;;;;;8.02;2.88;;;;;;;;;;5021195;28;20494;-58
2023/01/20 03:56:48;;;;;;;9.43;3.25;;;;;;;;;;5092816;28;20016;-58
2023/01/20 03:59:17;;;;;;;8.52;2.70;;;;;;;;;;5092707;28;20020;-59
2023/01/20 04:01:43;;;;;;;8.85;2.20;;;;;;;;;;5092558;28;20020;-59
2023/01/20 04:04:10;;;;;;;6.18;2.50;;;;;;;;;;5092697;28;20044;-57
2023/01/20 04:06:36;;;;;;;6.25;2.08;;;;;;;;;;5093077;28;20020;-57
2023/01/20 04:09:03;;;;;;;4.32;2.45;;;;;;;;;;5093110;28;20036;-57
2023/01/20 04:11:28;;;;;;;5.28;2.08;;;;;;;;;;5091210;28;20040;-57
2023/01/20 04:13:54;;;;;;;8.88;2.58;;;;;;;;;;5092903;28;20050;-59
2023/01/20 04:16:20;;;;;;;7.15;2.50;;;;;;;;;;5091392;28;20016;-58
2023/01/20 04:18:48;;;;;;;6.13;2.20;;;;;;;;;;5094421;28;20530;-58
2023/01/20 04:21:19;;;;;;;5.80;1.95;;;;;;;;;;5094021;28;20020;-59
2023/01/20 04:23:47;;;;;;;4.43;1.90;;;;;;;;;;5091993;28;20020;-60
2023/01/20 04:26:13;;;;;;;5.55;2.28;;;;;;;;;;5093062;28;20016;-58
2023/01/20 04:28:38;;;;;;;11.10;2.40;;;;;;;;;;5093218;28;20109;-59
2023/01/20 04:31:04;;;;;;;5.55;2.05;;;;;;;;;;5092092;28;20408;-59
2023/01/20 04:33:30;;;;;;;5.18;1.95;;;;;;;;;;5094096;28;20141;-62
2023/01/20 04:35:55;;;;;;;4.32;1.95;;;;;;;;;;5096904;28;20048;-57
2023/01/20 04:38:21;;;;;;;7.07;1.73;;;;;;;;;;5096992;28;20069;-57
2023/01/20 04:40:46;;;;;;;5.05;1.95;;;;;;;;;;5095841;28;20023;-57
2023/01/20 04:43:12;;;;;;;6.97;2.17;;;;;;;;;;5095462;28;20027;-57
2023/01/20 04:45:39;;;;;;;4.03;1.98;;;;;;;;;;5096090;28;20091;-58
2023/01/20 04:48:06;;;;;;;4.72;1.88;;;;;;;;;;5094301;28;20044;-56
2023/01/20 04:50:31;;;;;;;4.25;1.58;;;;;;;;;;5094324;28;20041;-59
2023/01/20 04:52:56;;;;;;;5.22;1.88;;;;;;;;;;5093875;28;20050;-62
2023/01/20 04:55:22;;;;;;;6.63;2.05;;;;;;;;;;5095236;28;20380;-57
2023/01/20 04:57:47;;;;;;;7.30;1.90;;;;;;;;;;5094424;28;20055;-57
2023/01/20 05:00:18;;;;;;;7.13;2.33;;;;;;;;;;5094796;28;20027;-61
2023/01/20 05:02:44;;;;;;;9.40;3.08;;;;;;;;;;5096635;28;20401;-61
2023/01/20 05:05:10;;;;;;;6.53;2.25;;;;;;;;;;5096180;28;20016;-60
2023/01/20 05:07:35;;;;;;;4.25;2.35;;;;;;;;;;5096092;28;20523;-60
2023/01/20 05:10:00;;;;;;;5.47;1.70;;;;;;;;;;5094645;28;20016;-58
2023/01/20 05:12:26;;;;;;;5.40;1.88;;;;;;;;;;5094333;28;20354;-58
2023/01/20 05:14:51;;;;;;;6.90;1.83;;;;;;;;;;5095620;28;20035;-57
2023/01/20 05:17:17;;;;;;;4.22;1.65;;;;;;;;;;5093906;28;20020;-59
2023/01/20 05:19:42;;;;;;;7.85;2.30;;;;;;;;;;5095445;28;20508;-58
2023/01/20 05:22:08;;;;;;;3.25;1.48;;;;;;;;;;5094593;28;20020;-57
2023/01/20 05:24:33;;;;;;;8.57;2.30;;;;;;;;;;5095827;28;20052;-58
2023/01/20 05:27:00;;;;;;;3.38;1.55;;;;;;;;;;5095164;28;20099;-60
2023/01/20 05:29:26;;;;;;;6.88;2.03;;;;;;;;;;5094482;28;20020;-60
2023/01/20 05:31:51;;;;;;;3.80;1.75;;;;;;;;;;5096989;28;20026;-57
2023/01/20 05:34:17;;;;;;;3.78;2.20;;;;;;;;;;5094670;28;20055;-62
2023/01/20 05:36:42;;;;;;;7.30;2.13;;;;;;;;;;5094864;28;20460;-59
2023/01/20 05:39:08;;;;;;;6.90;2.28;;;;;;;;;;5094718;28;20549;-59
2023/01/20 05:41:33;;;;;;;5.63;1.67;;;;;;;;;;5094619;28;20023;-59
2023/01/20 05:43:59;;;;;;;8.18;2.72;;;;;;;;;;5095946;28;20468;-61
2023/01/20 05:46:25;;;;;;;7.47;2.28;;;;;;;;;;5096241;28;20020;-59
2023/01/20 05:48:50;;;;;;;3.63;1.35;;;;;;;;;;5094528;28;20040;-58
2023/01/20 05:51:16;;;;;;;4.22;1.70;;;;;;;;;;5094779;28;20464;-59
2023/01/20 05:53:41;;;;;;;7.45;2.42;;;;;;;;;;5094592;28;20024;-58
2023/01/20 05:56:07;;;;;;;6.32;2.20;;;;;;;;;;5096005;28;20008;-59
2023/01/20 05:58:32;;;;;;;4.60;2.00;;;;;;;;;;5093444;28;20031;-57
2023/01/20 06:01:05;;;;;;;4.32;1.77;;;;;;;;;;5092600;28;20024;-63
2023/01/20 06:03:32;;;;;;;7.28;2.20;;;;;;;;;;5094281;28;20101;-59
2023/01/20 06:06:01;;;;;;;5.18;2.15;;;;;;;;;;5094208;28;20174;-58
2023/01/20 06:08:26;;;;;;;7.38;2.53;;;;;;;;;;5094365;28;20473;-58
2023/01/20 06:10:52;;;;;;;6.45;2.55;;;;;;;;;;5093954;28;20066;-59
2023/01/20 06:13:17;;;;;;;4.50;2.05;;;;;;;;;;5092923;28;20055;-59
2023/01/20 06:15:43;;;;;;;4.57;2.42;;;;;;;;;;5095168;28;20016;-57
2023/01/20 06:18:12;;;;;;;7.72;2.55;;;;;;;;;;5095312;28;20020;-58
2023/01/20 06:20:37;;;;;;;4.57;2.25;;;;;;;;;;5096428;28;20024;-61
2023/01/20 06:23:03;;;;;;;11.68;3.05;;;;;;;;;;5093708;28;20373;-57
2023/01/20 06:25:28;;;;;;;5.30;2.55;;;;;;;;;;5093487;28;20112;-60
2023/01/20 06:27:54;;;;;;;5.45;2.15;;;;;;;;;;5093354;28;20031;-58
2023/01/20 06:30:20;;;;;;;4.97;2.35;;;;;;;;;;5092274;28;20020;-59
2023/01/20 06:32:47;;;;;;;5.75;2.40;;;;;;;;;;5093749;28;20131;-59
2023/01/20 06:35:12;;;;;;;6.60;2.53;;;;;;;;;;5091828;28;20019;-58
2023/01/20 06:37:38;;;;;;;5.97;2.50;;;;;;;;;;5092023;28;20492;-60
2023/01/20 06:40:04;;;;;;;4.93;2.63;;;;;;;;;;5091561;28;20115;-59
2023/01/20 06:42:31;;;;;;;5.32;2.20;;;;;;;;;;5093143;28;20016;-59
2023/01/20 06:44:56;;;;;;;4.05;2.80;;;;;;;;;;5091514;28;20023;-66
2023/01/20 06:47:22;;;;;;;8.25;2.88;;;;;;;;;;5093381;28;20016;-62
2023/01/20 06:49:48;;;;;;;7.30;2.70;;;;;;;;;;5094066;28;20036;-60
2023/01/20 06:52:13;;;;;;;6.93;2.63;;;;;;;;;;5092752;28;20020;-64
2023/01/20 06:54:40;;;;;;;7.60;2.72;;;;;;;;;;5095171;28;20024;-60
2023/01/20 06:57:05;;;;;;;5.88;3.03;;;;;;;;;;5094464;28;20012;-60
2023/01/20 06:59:31;;;;;;;6.68;2.05;;;;;;;;;;5093337;28;20131;-60
2023/01/20 07:01:56;;;;;;;7.47;2.60;;;;;;;;;;5094397;28;20069;-58
2023/01/20 07:04:22;;;;;;;7.47;2.53;;;;;;;;;;5093411;28;20052;-66
2023/01/20 07:06:48;;;;;;;5.15;2.65;;;;;;;;;;5093357;28;20484;-60
2023/01/20 07:09:13;;;;;;;4.22;2.60;;;;;;;;;;5093846;28;20028;-58
2023/01/20 07:11:39;;;;;;;6.00;3.03;;;;;;;;;;5094361;28;20028;-59
2023/01/20 07:14:05;;;;;;;7.47;2.70;;;;;;;;;;5094955;28;20016;-58
2023/01/20 07:16:31;;;;;;;4.93;2.53;;;;;;;;;;5092520;28;20027;-58
2023/01/20 07:18:56;;;;;;;7.65;3.50;;;;;;;;;;5092931;28;20008;-59
2023/01/20 07:21:24;;;;;;;6.05;2.95;;;;;;;;;;5092580;28;20095;-59
2023/01/20 07:23:50;;;;;;;7.13;3.08;;;;;;;;;;5093148;28;20034;-59
2023/01/20 07:26:18;;;;;;;7.63;3.38;;;;;;;;;;5093468;28;20016;-58
2023/01/20 07:28:43;;;;;;;5.82;3.20;;;;;;;;;;5091130;28;20389;-56
2023/01/20 07:31:28;;;;;;;6.68;2.92;;;;;;;;;;5091992;28;20073;-59
2023/01/20 07:33:54;;;;;;;5.68;2.90;;;;;;;;;;5090564;28;20123;-58
2023/01/20 07:36:19;;;;;;;7.80;3.50;;;;;;;;;;5092483;28;20026;-59
2023/01/20 07:38:46;;;;;;;11.57;3.72;;;;;;;;;;5091219;28;20024;-60
2023/01/20 07:41:14;;;;;;;12.25;3.65;;;;;;;;;;5092801;28;20065;-59
2023/01/20 07:43:43;;;;;;;11.68;4.55;;;;;;;;;;5092171;28;20056;-59
2023/01/20 07:46:09;;;;;;;11.95;3.53;;;;;;;;;;5091863;28;20027;-59
2023/01/20 07:48:34;;;;;;;12.50;3.45;;;;;;;;;;5091501;28;20032;-60
2023/01/20 07:51:01;;;;;;;6.80;3.75;;;;;;;;;;5091912;28;20020;-58
2023/01/20 07:53:28;;;;;;;8.23;4.13;;;;;;;;;;5091758;28;20102;-58
2023/01/20 07:55:53;;;;;;;6.63;3.25;;;;;;;;;;5092090;28;20021;-60
2023/01/20 07:58:19;;;;;;;9.15;4.32;;;;;;;;;;5091976;28;20448;-59
2023/01/20 08:00:47;;;;;;;5.55;3.70;;;;;;;;;;5092072;28;20023;-59
2023/01/20 08:03:13;;;;;;;13.20;4.57;;;;;;;;;;5091472;28;20047;-59
2023/01/20 08:05:38;;;;;;;12.10;3.28;;;;;;;;;;5092281;28;20020;-58
2023/01/20 08:08:04;;;;;;;6.43;3.42;;;;;;;;;;5092294;28;20024;-58
2023/01/20 08:10:29;;;;;;;10.85;3.78;;;;;;;;;;5096132;28;20023;-60
2023/01/20 08:12:55;;;;;;;9.15;4.13;;;;;;;;;;5095696;28;20069;-58
2023/01/20 08:15:20;;;;;;;7.45;4.43;;;;;;;;;;5095455;28;20106;-58
2023/01/20 08:17:46;;;;;;;11.80;4.22;;;;;;;;;;5095585;28;20031;-59
2023/01/20 08:20:11;;;;;;;17.17;5.00;;;;;;;;;;5095936;28;20376;-59
2023/01/20 08:22:38;;;;;;;12.20;4.22;;;;;;;;;;5096379;28;20020;-57
2023/01/20 08:25:04;;;;;;;9.75;4.55;;;;;;;;;;5095095;28;20020;-58
2023/01/20 08:27:29;;;;;;;9.85;3.72;;;;;;;;;;5096167;28;20028;-59
2023/01/20 08:29:54;;;;;;;10.98;4.10;;;;;;;;;;5094272;28;20492;-58
2023/01/20 08:32:20;;;;;;;8.60;3.05;;;;;;;;;;5094228;28;20020;-58
2023/01/20 08:34:45;;;;;;;9.50;3.40;;;;;;;;;;5096070;28;20047;-58
2023/01/20 08:37:11;;;;;;;8.30;3.70;;;;;;;;;;5095487;28;20464;-60
2023/01/20 08:39:36;;;;;;;7.13;3.88;;;;;;;;;;5095696;28;20008;-57
2023/01/20 08:42:03;;;;;;;16.48;3.95;;;;;;;;;;5095863;28;20016;-58
2023/01/20 08:44:29;;;;;;;9.73;3.78;;;;;;;;;;5095477;28;20016;-58
2023/01/20 08:46:58;;;;;;;6.22;3.47;;;;;;;;;;5095395;28;20395;-57
2023/01/20 08:49:23;;;;;;;8.20;3.72;;;;;;;;;;5094044;28;20036;-59
2023/01/20 08:51:49;;;;;;;6.13;3.63;;;;;;;;;;5095808;28;20444;-63
2023/01/20 08:54:15;;;;;;;9.45;4.10;;;;;;;;;;5095771;28;20012;-58
2023/01/20 08:56:40;;;;;;;9.93;3.15;;;;;;;;;;5094133;28;20119;-58
2023/01/20 08:59:06;;;;;;;5.80;3.75;;;;;;;;;;5095108;28;20016;-59
2023/01/20 09:01:34;;;;;;;8.02;4.07;;;;;;;;;;5093488;28;20048;-58
2023/01/20 09:04:00;;;;;;;8.50;3.50;;;;;;;;;;5094947;28;20070;-59
2023/01/20 09:06:26;;;;;;;11.57;4.22;;;;;;;;;;5095439;28;20379;-58
2023/01/20 09:08:52;;;;;;;8.55;3.58;;;;;;;;;;5094872;28;20476;-58
2023/01/20 09:11:19;;;;;;;7.03;3.78;;;;;;;;;;5095183;28;20017;-59
2023/01/20 09:13:45;;;;;;;8.57;3.28;;;;;;;;;;5094929;28;20020;-58
2023/01/20 09:16:11;;;;;;;9.30;3.88;;;;;;;;;;5095164;28;20023;-59
2023/01/20 09:18:36;;;;;;;5.45;3.42;;;;;;;;;;5095109;28;20568;-59
2023/01/20 09:21:05;;;;;;;10.50;4.63;;;;;;;;;;5094761;28;20099;-59
2023/01/20 09:23:31;;;;;;;10.18;3.47;;;;;;;;;;5096423;28;20016;-58
2023/01/20 09:26:01;;;;;;;9.43;3.58;;;;;;;;;;5095744;28;20031;-58
2023/01/20 09:28:27;;;;;;;6.72;3.58;;;;;;;;;;5094998;28;20107;-57
2023/01/20 09:30:59;;;;;;;10.00;4.00;;;;;;;;;;5094750;28;20060;-59
2023/01/20 09:33:24;;;;;;;10.52;3.40;;;;;;;;;;5094810;28;20031;-61
2023/01/20 09:35:53;;;;;;;8.55;3.65;;;;;;;;;;5095021;28;20119;-59
2023/01/20 09:44:05;;;;;;;10.00;3.90;;;;;;;;;;5094460;28;20039;-58
2023/01/20 09:46:36;;;;;;;7.63;4.18;;;;;;;;;;5092809;28;20039;-58
2023/01/20 09:55:09;;;;;;;8.48;3.92;;;;;;;;;;5096348;28;20446;-59
2023/01/20 09:57:36;;;;;;;6.65;3.75;;;;;;;;;;5094761;28;20039;-58
2023/01/20 10:00:06;;;;;;;7.22;3.67;;;;;;;;;;5094113;28;20564;-58
2023/01/20 10:02:33;;;;;;;12.57;3.75;;;;;;;;;;5093495;28;20504;-58
2023/01/20 10:05:02;;;;;;;8.35;4.30;;;;;;;;;;5093706;28;20021;-58
2023/01/20 10:07:37;;;;;;;8.88;3.65;;;;;;;;;;5093848;28;20525;-60
2023/01/20 10:10:03;;;;;;;;;;;;;;;;;;5093450;28;20032;-60
2023/01/20 10:12:47;;;;;;;9.20;3.75;;;;;;;;;;5093149;28;19904;-60
2023/01/20 10:15:17;;;;;;;9.45;3.97;;;;;;;;;;5093131;28;20107;-59
2023/01/20 10:17:42;;;;;;;9.15;3.72;;;;;;;;;;5093150;28;20023;-60
2023/01/20 10:20:10;;;;;;;14.85;4.10;;;;;;;;;;5093191;28;20107;-66
2023/01/20 10:22:41;;;;;;;13.15;3.78;;;;;;;;;;5093526;28;20024;-58
2023/01/20 10:25:11;;;;;;;9.93;4.22;;;;;;;;;;5094349;28;20046;-59
2023/01/20 10:27:40;;;;;;;7.35;4.00;;;;;;;;;;5094484;28;20028;-60
2023/01/20 10:30:10;;;;;;;12.77;4.55;;;;;;;;;;5092375;28;20117;-60
2023/01/20 10:32:37;;;;;;;13.52;4.63;;;;;;;;;;5090823;28;20422;-59
2023/01/20 10:35:08;;;;;;;6.72;4.45;;;;;;;;;;5091416;28;20028;-61
2023/01/20 10:37:34;;;;;;;10.40;4.28;;;;;;;;;;5091814;28;20016;-60
2023/01/20 10:40:06;;;;;;;11.13;4.88;;;;;;;;;;5093937;28;20045;-59
2023/01/20 10:42:32;;;;;;;10.90;5.20;;;;;;;;;;5093747;28;20122;-60
2023/01/20 10:44:58;;;;;;;9.40;5.43;;;;;;;;;;5093565;28;20034;-57
2023/01/20 10:47:25;;;;;;;9.30;4.95;;;;;;;;;;5094358;28;20470;-62
2023/01/20 10:49:55;;;;;;;10.73;4.72;;;;;;;;;;5094274;28;20067;-59
2023/01/20 10:52:29;;;;;;;13.50;5.68;;;;;;;;;;5093420;28;20034;-60
2023/01/20 10:55:14;;;;;;;21.25;10.98;;;;;;;;;;5093379;28;20012;-63
2023/01/20 10:57:40;;;;;;;11.48;6.55;;;;;;;;;;5091640;28;20032;-58
2023/01/20 11:00:15;;;;;;;14.13;5.88;;;;;;;;;;5093022;28;20435;-61
2023/01/20 11:02:40;;;;;;;14.60;6.13;;;;;;;;;;5092798;28;20048;-59
2023/01/20 11:05:15;;;;;;;11.60;6.72;;;;;;;;;;5091329;28;20471;-58
2023/01/20 11:07:40;;;;;;;;;;;;;;;;;;5091528;28;20392;-60
2023/01/20 11:10:13;;;;;;;8.73;5.93;;;;;;;;;;5091045;28;19919;-60
2023/01/20 11:12:40;;;;;;;8.63;5.97;;;;;;;;;;5092303;28;20020;-58
2023/01/20 11:15:15;;;;;;;10.65;5.88;;;;;;;;;;5092251;28;20134;-60
2023/01/20 11:17:40;;;;;;;10.88;5.95;;;;;;;;;;5090467;28;20039;-61
2023/01/20 11:20:06;;;;;;;16.88;7.50;;;;;;;;;;5094241;28;20020;-62
2023/01/20 11:22:33;;;;;;;13.63;6.72;;;;;;;;;;5095006;28;20020;-68
2023/01/20 11:24:59;;;;;;;13.65;6.25;;;;;;;;;;5093100;28;20070;-59
2023/01/20 11:27:26;;;;;;;12.40;6.32;;;;;;;;;;5092157;28;20541;-59
2023/01/20 11:29:55;;;;;;;13.85;6.55;;;;;;;;;;5090761;28;20054;-60
2023/01/20 11:32:26;;;;;;;20.65;7.55;;;;;;;;;;5091174;28;20379;-59
2023/01/20 11:34:52;;;;;;;21.17;7.35;;;;;;;;;;5091354;28;20058;-58
2023/01/20 11:37:19;;;;;;;13.98;7.40;;;;;;;;;;5091747;28;20060;-59
2023/01/20 11:39:48;;;;;;;15.45;7.82;;;;;;;;;;5090836;28;20016;-59
2023/01/20 11:42:23;;;;;;;16.90;8.50;;;;;;;;;;5092888;28;20460;-60
2023/01/20 11:44:50;;;;;;;15.43;7.38;;;;;;;;;;5096457;28;20536;-58
2023/01/20 11:47:21;;;;;;;14.77;8.05;;;;;;;;;;5094845;28;20027;-59
2023/01/20 11:50:04;;;;;;;19.10;8.50;;;;;;;;;;5096360;28;20020;-60
2023/01/20 11:52:36;;;;;;;14.82;7.35;;;;;;;;;;5096777;28;20484;-59
2023/01/20 11:55:12;;;;;;;14.43;7.78;;;;;;;;;;5096424;28;20078;-59
2023/01/20 11:57:49;;;;;;;26.08;8.20;;;;;;;;;;5094923;28;20039;-60
2023/01/20 12:00:17;;;;;;;12.77;6.72;;;;;;;;;;5095960;28;20103;-63
2023/01/20 12:02:56;;;;;;;8.52;5.45;;;;;;;;;;5095814;28;20093;-57
2023/01/20 12:05:28;;;;;;;19.25;7.88;;;;;;;;;;5096410;28;20027;-60
2023/01/20 12:07:55;;;;;;;9.95;5.25;;;;;;;;;;5094844;28;20024;-58
2023/01/20 12:10:20;;;;;;;12.68;5.25;;;;;;;;;;5094822;28;20322;-58
2023/01/20 12:13:01;;;;;;;7.80;5.28;;;;;;;;;;5094820;28;20500;-59
2023/01/20 12:15:30;;;;;;;9.63;5.45;;;;;;;;;;5094518;28;20035;-58
2023/01/20 12:18:00;;;;;;;12.45;5.90;;;;;;;;;;5096524;28;20020;-57
2023/01/20 12:20:34;;;;;;;11.93;7.63;;;;;;;;;;5098922;28;20066;-61
2023/01/20 12:23:21;;;;;;;11.30;7.38;;;;;;;;;;5098244;28;20087;-60
2023/01/20 12:25:52;;;;;;;21.08;8.20;;;;;;;;;;5097230;28;20063;-63
2023/01/20 12:28:28;;;;;;;12.57;6.60;;;;;;;;;;5095495;28;20028;-60
2023/01/20 12:30:53;;;;;;;12.07;6.97;;;;;;;;;;5095703;28;20028;-57
2023/01/20 12:33:21;;;;;;;12.43;6.00;;;;;;;;;;5093982;28;20326;-60
2023/01/20 12:36:05;;;;;;;10.38;5.85;;;;;;;;;;5095675;28;20016;-57
2023/01/20 12:38:35;;;;;;;8.57;5.57;;;;;;;;;;5095386;28;20137;-58
2023/01/20 12:41:03;;;;;;;9.20;6.40;;;;;;;;;;5093896;28;20024;-62
2023/01/20 12:43:35;;;;;;;10.02;6.45;;;;;;;;;;5095303;28;20016;-60
2023/01/20 12:46:12;;;;;;;14.88;6.63;;;;;;;;;;5095004;28;20028;-63
2023/01/20 12:48:50;;;;;;;16.98;8.25;;;;;;;;;;5093989;28;20043;-59
2023/01/20 12:51:22;;;;;;;12.38;7.68;;;;;;;;;;5094731;28;20020;-57
2023/01/20 12:54:06;;;;;;;15.73;7.60;;;;;;;;;;5094808;28;20020;-59
2023/01/20 12:56:39;;;;;;;11.32;8.23;;;;;;;;;;5094753;28;20024;-59
2023/01/20 12:59:22;;;;;;;13.57;7.72;;;;;;;;;;5093614;28;20020;-57
2023/01/20 13:02:01;;;;;;;13.35;7.03;;;;;;;;;;5095268;28;20103;-59
2023/01/20 13:04:26;;;;;;;14.32;7.60;;;;;;;;;;5095102;28;20118;-59
2023/01/20 13:07:00;;;;;;;16.13;7.68;;;;;;;;;;5094703;28;20016;-59
2023/01/20 13:09:38;;;;;;;16.15;8.52;;;;;;;;;;5094883;28;20024;-58
2023/01/20 13:12:04;;;;;;;17.73;9.00;;;;;;;;;;5093792;28;20023;-60
2023/01/20 13:14:29;;;;;;;22.63;10.57;;;;;;;;;;5095247;28;20026;-57
2023/01/20 13:17:05;;;;;;;25.55;11.95;;;;;;;;;;5093679;28;20016;-58
2023/01/20 13:19:37;;;;;;;18.45;10.82;;;;;;;;;;5093610;28;20433;-57
2023/01/20 13:22:10;;;;;;;24.92;11.98;;;;;;;;;;5094286;28;20091;-57
2023/01/20 13:24:36;;;;;;;20.42;11.70;;;;;;;;;;5095352;28;20024;-59
2023/01/20 13:27:02;;;;;;;23.85;12.02;;;;;;;;;;5093306;28;20012;-58
2023/01/20 13:29:46;;;;;;;25.70;11.85;;;;;;;;;;5095329;28;20028;-60
2023/01/20 13:32:28;;;;;;;26.63;12.85;;;;;;;;;;5094898;28;20027;-57
2023/01/20 13:34:54;;;;;;;19.23;9.02;;;;;;;;;;5093051;28;20473;-59
2023/01/20 13:37:22;;;;;;;24.35;11.60;;;;;;;;;;5094783;28;20012;-57
2023/01/20 13:39:48;;;;;;;14.75;8.25;;;;;;;;;;5094548;28;20023;-58
2023/01/20 13:42:26;;;;;;;14.10;8.10;;;;;;;;;;5094823;28;20051;-58
2023/01/20 13:45:21;;;;;;;15.20;8.25;;;;;;;;;;5092869;28;20041;-58
2023/01/20 13:48:05;;;;;;;15.32;9.45;;;;;;;;;;5081044;28;20039;-59
2023/01/20 13:50:31;;;;;;;15.10;9.27;;;;;;;;;;5094306;28;20377;-57
2023/01/20 13:52:56;;;;;;;20.15;9.70;;;;;;;;;;5092834;28;20024;-60
2023/01/20 13:55:40;;;;;;;17.45;8.25;;;;;;;;;;5094197;28;20484;-58
2023/01/20 13:58:14;;;;;;;13.52;8.05;;;;;;;;;;5092769;28;20024;-57
2023/01/20 14:00:40;;;;;;;19.90;9.85;;;;;;;;;;5095222;28;20036;-60
2023/01/20 14:03:11;;;;;;;18.92;8.70;;;;;;;;;;5093406;28;20098;-59
2023/01/20 14:05:38;;;;;;;17.50;7.93;;;;;;;;;;5092679;28;20125;-57
2023/01/20 14:08:11;;;;;;;18.20;8.25;;;;;;;;;;5092495;28;20028;-58
2023/01/20 14:10:36;;;;;;;16.08;7.68;;;;;;;;;;5092544;28;20016;-58
2023/01/20 14:13:07;;;;;;;17.60;8.70;;;;;;;;;;5092218;28;20023;-57
2023/01/20 14:15:35;;;;;;;16.02;8.23;;;;;;;;;;5093625;28;20048;-58
2023/01/20 14:18:01;;;;;;;19.02;8.95;;;;;;;;;;5093785;28;20020;-56
2023/01/20 14:20:27;;;;;;;21.63;8.57;;;;;;;;;;5091950;28;20023;-58
2023/01/20 14:22:53;;;;;;;14.65;8.30;;;;;;;;;;5092716;28;20048;-57
2023/01/20 14:25:27;;;;;;;14.77;8.90;;;;;;;;;;5094490;28;20008;-57
2023/01/20 14:27:52;;;;;;;14.85;7.43;;;;;;;;;;5093760;28;20016;-58
2023/01/20 14:30:23;;;;;;;12.30;7.05;;;;;;;;;;5092926;28;20035;-56
2023/01/20 14:32:49;;;;;;;14.45;8.35;;;;;;;;;;5092233;28;20055;-58
2023/01/20 14:35:16;;;;;;;16.83;8.43;;;;;;;;;;5093393;28;20099;-57
2023/01/20 14:37:42;;;;;;;23.45;9.35;;;;;;;;;;5093071;28;20028;-56
2023/01/20 14:40:10;;;;;;;20.85;9.73;;;;;;;;;;5093462;28;20457;-56
2023/01/20 14:42:37;;;;;;;24.35;10.82;;;;;;;;;;5092979;28;20384;-57
2023/01/20 14:45:18;;;;;;;18.50;9.70;;;;;;;;;;5093367;28;20422;-58
2023/01/20 14:47:43;;;;;;;16.90;9.18;;;;;;;;;;5091817;28;20104;-59
2023/01/20 14:50:13;;;;;;;15.80;9.27;;;;;;;;;;5093019;28;20166;-57
2023/01/20 14:52:38;;;;;;;25.48;14.63;;;;;;;;;;5092977;28;20027;-58
2023/01/20 14:55:04;;;;;;;16.45;9.30;;;;;;;;;;5093682;28;20024;-60
2023/01/20 14:57:33;;;;;;;24.08;11.30;;;;;;;;;;5093741;28;20020;-59